sensor_id;sensor_type;location;lat;lon;timestamp;P1;durP1;ratioP1;P2;durP2;ratioP2
47335;SDS011;33068;51.990;5.926;2024-01-06T00:00:07;34.20;;;16.85;;
47335;SDS011;33068;51.990;5.926;2024-01-06T00:02:38;28.60;;;15.10;;
47335;SDS011;33068;51.990;5.926;2024-01-06T00:05:05;33.47;;;16.98;;
47335;SDS011;33068;51.990;5.926;2024-01-06T00:07:33;26.67;;;15.15;;
47335;SDS011;33068;51.990;5.926;2024-01-06T00:10:00;31.65;;;14.88;;
47335;SDS011;33068;51.990;5.926;2024-01-06T00:12:29;28.00;;;15.02;;
47335;SDS011;33068;51.990;5.926;2024-01-06T00:14:56;28.35;;;14.68;;
47335;SDS011;33068;51.990;5.926;2024-01-06T00:17:23;32.47;;;16.25;;
47335;SDS011;33068;51.990;5.926;2024-01-06T00:19:50;33.20;;;15.70;;
47335;SDS011;33068;51.990;5.926;2024-01-06T00:22:17;28.08;;;14.68;;
47335;SDS011;33068;51.990;5.926;2024-01-06T00:24:44;30.70;;;15.43;;
47335;SDS011;33068;51.990;5.926;2024-01-06T00:27:11;29.15;;;15.02;;
47335;SDS011;33068;51.990;5.926;2024-01-06T00:29:40;26.75;;;14.43;;
47335;SDS011;33068;51.990;5.926;2024-01-06T00:32:07;27.88;;;13.85;;
47335;SDS011;33068;51.990;5.926;2024-01-06T00:34:34;24.25;;;12.98;;
47335;SDS011;33068;51.990;5.926;2024-01-06T00:37:01;28.98;;;13.20;;
47335;SDS011;33068;51.990;5.926;2024-01-06T00:39:28;22.55;;;12.82;;
47335;SDS011;33068;51.990;5.926;2024-01-06T00:41:55;25.20;;;14.30;;
47335;SDS011;33068;51.990;5.926;2024-01-06T00:44:22;23.17;;;12.35;;
47335;SDS011;33068;51.990;5.926;2024-01-06T00:46:50;25.20;;;13.43;;
47335;SDS011;33068;51.990;5.926;2024-01-06T00:49:17;26.23;;;12.93;;
47335;SDS011;33068;51.990;5.926;2024-01-06T00:51:45;24.65;;;13.02;;
47335;SDS011;33068;51.990;5.926;2024-01-06T00:54:12;25.95;;;13.63;;
47335;SDS011;33068;51.990;5.926;2024-01-06T00:56:39;26.30;;;13.60;;
47335;SDS011;33068;51.990;5.926;2024-01-06T00:59:07;25.70;;;12.80;;
47335;SDS011;33068;51.990;5.926;2024-01-06T01:01:34;28.25;;;13.48;;
47335;SDS011;33068;51.990;5.926;2024-01-06T01:04:03;24.65;;;13.57;;
47335;SDS011;33068;51.990;5.926;2024-01-06T01:06:30;23.40;;;12.95;;
47335;SDS011;33068;51.990;5.926;2024-01-06T01:08:56;27.42;;;13.52;;
47335;SDS011;33068;51.990;5.926;2024-01-06T01:11:23;24.98;;;13.90;;
47335;SDS011;33068;51.990;5.926;2024-01-06T01:13:51;27.73;;;14.40;;
47335;SDS011;33068;51.990;5.926;2024-01-06T01:16:18;26.65;;;13.55;;
47335;SDS011;33068;51.990;5.926;2024-01-06T01:18:45;25.30;;;13.27;;
47335;SDS011;33068;51.990;5.926;2024-01-06T01:21:13;27.05;;;13.35;;
47335;SDS011;33068;51.990;5.926;2024-01-06T01:23:41;26.35;;;14.10;;
47335;SDS011;33068;51.990;5.926;2024-01-06T01:26:08;27.15;;;14.80;;
47335;SDS011;33068;51.990;5.926;2024-01-06T01:28:35;26.60;;;13.52;;
47335;SDS011;33068;51.990;5.926;2024-01-06T01:31:02;29.48;;;15.50;;
47335;SDS011;33068;51.990;5.926;2024-01-06T01:33:29;26.77;;;14.32;;
47335;SDS011;33068;51.990;5.926;2024-01-06T01:35:56;27.63;;;13.88;;
47335;SDS011;33068;51.990;5.926;2024-01-06T01:38:24;32.83;;;15.02;;
47335;SDS011;33068;51.990;5.926;2024-01-06T01:40:51;31.08;;;15.02;;
47335;SDS011;33068;51.990;5.926;2024-01-06T01:43:18;29.67;;;14.85;;
47335;SDS011;33068;51.990;5.926;2024-01-06T01:45:48;29.23;;;15.48;;
47335;SDS011;33068;51.990;5.926;2024-01-06T01:48:18;27.95;;;14.88;;
47335;SDS011;33068;51.990;5.926;2024-01-06T01:50:45;26.10;;;13.93;;
47335;SDS011;33068;51.990;5.926;2024-01-06T01:53:13;28.95;;;14.40;;
47335;SDS011;33068;51.990;5.926;2024-01-06T01:55:42;30.65;;;15.70;;
47335;SDS011;33068;51.990;5.926;2024-01-06T01:58:10;27.85;;;15.00;;
47335;SDS011;33068;51.990;5.926;2024-01-06T02:00:38;36.40;;;16.30;;
47335;SDS011;33068;51.990;5.926;2024-01-06T02:03:06;32.15;;;15.90;;
47335;SDS011;33068;51.990;5.926;2024-01-06T02:05:35;31.83;;;16.25;;
47335;SDS011;33068;51.990;5.926;2024-01-06T02:08:02;31.73;;;16.98;;
47335;SDS011;33068;51.990;5.926;2024-01-06T02:10:30;41.50;;;17.23;;
47335;SDS011;33068;51.990;5.926;2024-01-06T02:13:00;33.83;;;16.23;;
47335;SDS011;33068;51.990;5.926;2024-01-06T02:15:34;36.40;;;16.20;;
47335;SDS011;33068;51.990;5.926;2024-01-06T02:18:01;40.42;;;17.35;;
47335;SDS011;33068;51.990;5.926;2024-01-06T02:20:28;34.63;;;18.42;;
47335;SDS011;33068;51.990;5.926;2024-01-06T02:22:58;43.20;;;19.17;;
47335;SDS011;33068;51.990;5.926;2024-01-06T02:25:25;41.70;;;19.08;;
47335;SDS011;33068;51.990;5.926;2024-01-06T02:27:53;43.85;;;19.13;;
47335;SDS011;33068;51.990;5.926;2024-01-06T02:30:20;42.53;;;19.15;;
47335;SDS011;33068;51.990;5.926;2024-01-06T02:32:47;42.95;;;18.73;;
47335;SDS011;33068;51.990;5.926;2024-01-06T02:35:14;41.22;;;18.92;;
47335;SDS011;33068;51.990;5.926;2024-01-06T02:37:41;44.60;;;18.77;;
47335;SDS011;33068;51.990;5.926;2024-01-06T02:40:10;40.17;;;17.80;;
47335;SDS011;33068;51.990;5.926;2024-01-06T02:42:38;46.10;;;19.20;;
47335;SDS011;33068;51.990;5.926;2024-01-06T02:45:06;43.92;;;21.20;;
47335;SDS011;33068;51.990;5.926;2024-01-06T02:47:34;36.22;;;18.10;;
47335;SDS011;33068;51.990;5.926;2024-01-06T02:50:01;41.00;;;18.60;;
47335;SDS011;33068;51.990;5.926;2024-01-06T02:52:28;42.95;;;18.80;;
47335;SDS011;33068;51.990;5.926;2024-01-06T02:54:55;43.17;;;19.52;;
47335;SDS011;33068;51.990;5.926;2024-01-06T02:57:23;39.47;;;19.27;;
47335;SDS011;33068;51.990;5.926;2024-01-06T02:59:50;40.35;;;19.60;;
47335;SDS011;33068;51.990;5.926;2024-01-06T03:02:17;43.85;;;19.33;;
47335;SDS011;33068;51.990;5.926;2024-01-06T03:04:44;37.97;;;19.15;;
47335;SDS011;33068;51.990;5.926;2024-01-06T03:07:11;40.83;;;19.02;;
47335;SDS011;33068;51.990;5.926;2024-01-06T03:09:38;40.75;;;19.77;;
47335;SDS011;33068;51.990;5.926;2024-01-06T03:12:05;45.28;;;19.85;;
47335;SDS011;33068;51.990;5.926;2024-01-06T03:14:34;45.70;;;20.65;;
47335;SDS011;33068;51.990;5.926;2024-01-06T03:17:01;52.67;;;22.90;;
47335;SDS011;33068;51.990;5.926;2024-01-06T03:19:28;47.83;;;21.23;;
47335;SDS011;33068;51.990;5.926;2024-01-06T03:21:57;44.95;;;22.35;;
47335;SDS011;33068;51.990;5.926;2024-01-06T03:24:25;45.85;;;22.23;;
47335;SDS011;33068;51.990;5.926;2024-01-06T03:26:56;52.47;;;21.60;;
47335;SDS011;33068;51.990;5.926;2024-01-06T03:29:23;48.00;;;22.35;;
47335;SDS011;33068;51.990;5.926;2024-01-06T03:31:51;43.17;;;20.10;;
47335;SDS011;33068;51.990;5.926;2024-01-06T03:34:18;44.40;;;21.25;;
47335;SDS011;33068;51.990;5.926;2024-01-06T03:36:46;42.65;;;18.40;;
47335;SDS011;33068;51.990;5.926;2024-01-06T03:39:13;45.25;;;19.90;;
47335;SDS011;33068;51.990;5.926;2024-01-06T03:41:40;49.05;;;20.30;;
47335;SDS011;33068;51.990;5.926;2024-01-06T03:44:07;38.95;;;19.00;;
47335;SDS011;33068;51.990;5.926;2024-01-06T03:46:34;42.75;;;19.70;;
47335;SDS011;33068;51.990;5.926;2024-01-06T03:49:03;42.90;;;19.95;;
47335;SDS011;33068;51.990;5.926;2024-01-06T03:51:30;46.78;;;20.48;;
47335;SDS011;33068;51.990;5.926;2024-01-06T03:53:57;49.83;;;21.10;;
47335;SDS011;33068;51.990;5.926;2024-01-06T03:56:24;52.88;;;21.77;;
47335;SDS011;33068;51.990;5.926;2024-01-06T03:58:51;44.92;;;21.30;;
47335;SDS011;33068;51.990;5.926;2024-01-06T04:01:18;45.28;;;19.73;;
47335;SDS011;33068;51.990;5.926;2024-01-06T04:03:46;46.53;;;21.13;;
47335;SDS011;33068;51.990;5.926;2024-01-06T04:06:15;51.42;;;21.23;;
47335;SDS011;33068;51.990;5.926;2024-01-06T04:08:42;44.67;;;20.80;;
47335;SDS011;33068;51.990;5.926;2024-01-06T04:11:09;48.42;;;21.60;;
47335;SDS011;33068;51.990;5.926;2024-01-06T04:13:36;48.60;;;21.20;;
47335;SDS011;33068;51.990;5.926;2024-01-06T04:16:03;50.90;;;22.77;;
47335;SDS011;33068;51.990;5.926;2024-01-06T04:18:31;50.13;;;21.95;;
47335;SDS011;33068;51.990;5.926;2024-01-06T04:20:58;46.85;;;21.50;;
47335;SDS011;33068;51.990;5.926;2024-01-06T04:23:26;47.17;;;23.23;;
47335;SDS011;33068;51.990;5.926;2024-01-06T04:25:53;46.95;;;22.48;;
47335;SDS011;33068;51.990;5.926;2024-01-06T04:28:20;50.97;;;23.05;;
47335;SDS011;33068;51.990;5.926;2024-01-06T04:30:47;54.53;;;24.42;;
47335;SDS011;33068;51.990;5.926;2024-01-06T04:33:14;49.00;;;23.83;;
47335;SDS011;33068;51.990;5.926;2024-01-06T04:35:41;51.90;;;25.38;;
47335;SDS011;33068;51.990;5.926;2024-01-06T04:38:08;62.50;;;25.02;;
47335;SDS011;33068;51.990;5.926;2024-01-06T04:40:37;64.40;;;25.13;;
47335;SDS011;33068;51.990;5.926;2024-01-06T04:43:04;62.38;;;27.10;;
47335;SDS011;33068;51.990;5.926;2024-01-06T04:45:31;65.90;;;25.77;;
47335;SDS011;33068;51.990;5.926;2024-01-06T04:47:58;69.30;;;28.02;;
47335;SDS011;33068;51.990;5.926;2024-01-06T04:50:25;51.05;;;23.70;;
47335;SDS011;33068;51.990;5.926;2024-01-06T04:52:52;53.20;;;24.02;;
47335;SDS011;33068;51.990;5.926;2024-01-06T04:55:19;52.65;;;25.65;;
47335;SDS011;33068;51.990;5.926;2024-01-06T04:57:47;50.05;;;22.80;;
47335;SDS011;33068;51.990;5.926;2024-01-06T05:00:14;54.97;;;22.77;;
47335;SDS011;33068;51.990;5.926;2024-01-06T05:02:42;47.55;;;22.73;;
47335;SDS011;33068;51.990;5.926;2024-01-06T05:05:09;45.70;;;20.70;;
47335;SDS011;33068;51.990;5.926;2024-01-06T05:07:36;42.15;;;21.00;;
47335;SDS011;33068;51.990;5.926;2024-01-06T05:10:04;42.63;;;21.50;;
47335;SDS011;33068;51.990;5.926;2024-01-06T05:12:32;43.40;;;21.10;;
47335;SDS011;33068;51.990;5.926;2024-01-06T05:15:00;49.65;;;21.13;;
47335;SDS011;33068;51.990;5.926;2024-01-06T05:17:27;41.88;;;20.52;;
47335;SDS011;33068;51.990;5.926;2024-01-06T05:19:54;40.00;;;19.27;;
47335;SDS011;33068;51.990;5.926;2024-01-06T05:22:21;44.45;;;20.05;;
47335;SDS011;33068;51.990;5.926;2024-01-06T05:24:48;39.35;;;20.23;;
47335;SDS011;33068;51.990;5.926;2024-01-06T05:27:18;43.85;;;21.27;;
47335;SDS011;33068;51.990;5.926;2024-01-06T05:29:45;45.67;;;21.75;;
47335;SDS011;33068;51.990;5.926;2024-01-06T05:32:15;46.70;;;20.40;;
47335;SDS011;33068;51.990;5.926;2024-01-06T05:34:43;40.05;;;20.50;;
47335;SDS011;33068;51.990;5.926;2024-01-06T05:37:10;47.58;;;21.90;;
47335;SDS011;33068;51.990;5.926;2024-01-06T05:39:38;41.75;;;20.70;;
47335;SDS011;33068;51.990;5.926;2024-01-06T05:42:05;46.45;;;21.00;;
47335;SDS011;33068;51.990;5.926;2024-01-06T05:44:35;38.95;;;20.40;;
47335;SDS011;33068;51.990;5.926;2024-01-06T05:47:06;42.83;;;19.98;;
47335;SDS011;33068;51.990;5.926;2024-01-06T05:49:35;45.50;;;21.23;;
47335;SDS011;33068;51.990;5.926;2024-01-06T05:52:02;43.38;;;21.33;;
47335;SDS011;33068;51.990;5.926;2024-01-06T05:54:30;48.08;;;21.33;;
47335;SDS011;33068;51.990;5.926;2024-01-06T05:56:57;45.10;;;20.77;;
47335;SDS011;33068;51.990;5.926;2024-01-06T06:01:51;46.33;;;20.10;;
47335;SDS011;33068;51.990;5.926;2024-01-06T06:04:19;45.65;;;21.90;;
47335;SDS011;33068;51.990;5.926;2024-01-06T06:06:47;43.70;;;22.30;;
47335;SDS011;33068;51.990;5.926;2024-01-06T06:09:14;49.65;;;21.75;;
47335;SDS011;33068;51.990;5.926;2024-01-06T06:11:41;52.05;;;22.77;;
47335;SDS011;33068;51.990;5.926;2024-01-06T06:14:09;48.58;;;21.65;;
47335;SDS011;33068;51.990;5.926;2024-01-06T06:16:36;47.70;;;22.60;;
47335;SDS011;33068;51.990;5.926;2024-01-06T06:19:03;41.15;;;22.20;;
47335;SDS011;33068;51.990;5.926;2024-01-06T06:21:30;44.03;;;22.60;;
47335;SDS011;33068;51.990;5.926;2024-01-06T06:23:58;44.58;;;22.25;;
47335;SDS011;33068;51.990;5.926;2024-01-06T06:26:25;48.92;;;21.65;;
47335;SDS011;33068;51.990;5.926;2024-01-06T06:28:53;45.72;;;22.02;;
47335;SDS011;33068;51.990;5.926;2024-01-06T06:31:20;41.50;;;20.17;;
47335;SDS011;33068;51.990;5.926;2024-01-06T06:33:47;44.88;;;22.50;;
47335;SDS011;33068;51.990;5.926;2024-01-06T06:36:14;38.63;;;20.20;;
47335;SDS011;33068;51.990;5.926;2024-01-06T06:38:41;38.40;;;19.60;;
47335;SDS011;33068;51.990;5.926;2024-01-06T06:41:10;44.10;;;20.77;;
47335;SDS011;33068;51.990;5.926;2024-01-06T06:43:37;40.03;;;21.00;;
47335;SDS011;33068;51.990;5.926;2024-01-06T06:46:04;38.75;;;20.73;;
47335;SDS011;33068;51.990;5.926;2024-01-06T06:48:31;38.38;;;19.70;;
47335;SDS011;33068;51.990;5.926;2024-01-06T06:50:58;38.50;;;19.50;;
47335;SDS011;33068;51.990;5.926;2024-01-06T06:53:25;33.90;;;20.10;;
47335;SDS011;33068;51.990;5.926;2024-01-06T06:55:52;36.17;;;20.15;;
47335;SDS011;33068;51.990;5.926;2024-01-06T06:58:20;43.55;;;21.35;;
47335;SDS011;33068;51.990;5.926;2024-01-06T07:00:47;37.60;;;19.08;;
47335;SDS011;33068;51.990;5.926;2024-01-06T07:03:14;37.28;;;19.52;;
47335;SDS011;33068;51.990;5.926;2024-01-06T07:05:41;36.60;;;19.17;;
47335;SDS011;33068;51.990;5.926;2024-01-06T07:08:08;34.90;;;19.15;;
47335;SDS011;33068;51.990;5.926;2024-01-06T07:10:35;34.92;;;19.17;;
47335;SDS011;33068;51.990;5.926;2024-01-06T07:13:03;37.45;;;20.40;;
47335;SDS011;33068;51.990;5.926;2024-01-06T07:15:32;41.63;;;21.40;;
47335;SDS011;33068;51.990;5.926;2024-01-06T07:17:59;39.83;;;19.38;;
47335;SDS011;33068;51.990;5.926;2024-01-06T07:20:26;35.55;;;19.08;;
47335;SDS011;33068;51.990;5.926;2024-01-06T07:22:53;34.35;;;18.75;;
47335;SDS011;33068;51.990;5.926;2024-01-06T07:25:20;30.80;;;16.92;;
47335;SDS011;33068;51.990;5.926;2024-01-06T07:27:47;32.50;;;17.05;;
47335;SDS011;33068;51.990;5.926;2024-01-06T07:30:14;31.02;;;17.83;;
47335;SDS011;33068;51.990;5.926;2024-01-06T07:32:43;30.50;;;17.75;;
47335;SDS011;33068;51.990;5.926;2024-01-06T07:35:10;31.95;;;17.90;;
47335;SDS011;33068;51.990;5.926;2024-01-06T07:37:37;30.98;;;17.30;;
47335;SDS011;33068;51.990;5.926;2024-01-06T07:40:04;30.13;;;17.30;;
47335;SDS011;33068;51.990;5.926;2024-01-06T07:42:31;28.75;;;16.65;;
47335;SDS011;33068;51.990;5.926;2024-01-06T07:44:58;29.88;;;17.20;;
47335;SDS011;33068;51.990;5.926;2024-01-06T07:47:25;36.90;;;19.15;;
47335;SDS011;33068;51.990;5.926;2024-01-06T07:49:53;32.58;;;17.33;;
47335;SDS011;33068;51.990;5.926;2024-01-06T07:52:22;35.83;;;18.20;;
47335;SDS011;33068;51.990;5.926;2024-01-06T07:54:49;36.78;;;19.90;;
47335;SDS011;33068;51.990;5.926;2024-01-06T07:57:16;37.10;;;18.67;;
47335;SDS011;33068;51.990;5.926;2024-01-06T07:59:43;29.25;;;17.63;;
47335;SDS011;33068;51.990;5.926;2024-01-06T08:02:11;32.10;;;18.08;;
47335;SDS011;33068;51.990;5.926;2024-01-06T08:04:38;34.15;;;17.13;;
47335;SDS011;33068;51.990;5.926;2024-01-06T08:07:06;32.35;;;17.23;;
47335;SDS011;33068;51.990;5.926;2024-01-06T08:09:33;28.33;;;16.40;;
47335;SDS011;33068;51.990;5.926;2024-01-06T08:16:01;29.30;;;16.70;;
47335;SDS011;33068;51.990;5.926;2024-01-06T08:34:50;40.08;;;19.13;;
47335;SDS011;33068;51.990;5.926;2024-01-06T08:37:17;42.92;;;21.13;;
47335;SDS011;33068;51.990;5.926;2024-01-06T08:39:44;40.83;;;20.23;;
47335;SDS011;33068;51.990;5.926;2024-01-06T08:42:11;35.45;;;17.88;;
47335;SDS011;33068;51.990;5.926;2024-01-06T08:44:38;43.22;;;20.40;;
47335;SDS011;33068;51.990;5.926;2024-01-06T08:47:07;41.47;;;21.65;;
47335;SDS011;33068;51.990;5.926;2024-01-06T08:49:36;44.90;;;21.30;;
47335;SDS011;33068;51.990;5.926;2024-01-06T08:52:03;49.25;;;22.33;;
47335;SDS011;33068;51.990;5.926;2024-01-06T08:54:31;40.70;;;21.25;;
47335;SDS011;33068;51.990;5.926;2024-01-06T08:56:58;45.72;;;21.42;;
47335;SDS011;33068;51.990;5.926;2024-01-06T08:59:25;39.97;;;19.85;;
47335;SDS011;33068;51.990;5.926;2024-01-06T09:01:52;38.47;;;19.67;;
47335;SDS011;33068;51.990;5.926;2024-01-06T09:04:21;44.20;;;20.40;;
47335;SDS011;33068;51.990;5.926;2024-01-06T09:06:48;48.63;;;23.25;;
47335;SDS011;33068;51.990;5.926;2024-01-06T09:09:16;46.35;;;22.05;;
47335;SDS011;33068;51.990;5.926;2024-01-06T09:11:49;45.08;;;21.88;;
47335;SDS011;33068;51.990;5.926;2024-01-06T11:20:19;39.22;;;21.00;;
47335;SDS011;33068;51.990;5.926;2024-01-06T11:22:46;40.72;;;22.48;;
47335;SDS011;33068;51.990;5.926;2024-01-06T11:25:14;45.45;;;23.60;;
47335;SDS011;33068;51.990;5.926;2024-01-06T11:27:44;39.22;;;22.33;;
47335;SDS011;33068;51.990;5.926;2024-01-06T11:30:19;45.88;;;22.88;;
47335;SDS011;33068;51.990;5.926;2024-01-06T11:32:48;40.50;;;22.83;;
47335;SDS011;33068;51.990;5.926;2024-01-06T11:35:20;41.45;;;22.27;;
47335;SDS011;33068;51.990;5.926;2024-01-06T11:37:53;39.70;;;22.75;;
47335;SDS011;33068;51.990;5.926;2024-01-06T11:40:25;39.08;;;21.60;;
47335;SDS011;33068;51.990;5.926;2024-01-06T11:43:00;35.97;;;21.05;;
47335;SDS011;33068;51.990;5.926;2024-01-06T11:45:29;33.30;;;20.35;;
47335;SDS011;33068;51.990;5.926;2024-01-06T11:47:57;40.58;;;21.58;;
47335;SDS011;33068;51.990;5.926;2024-01-06T11:50:26;37.58;;;20.83;;
47335;SDS011;33068;51.990;5.926;2024-01-06T11:52:54;34.05;;;20.10;;
47335;SDS011;33068;51.990;5.926;2024-01-06T11:55:21;34.65;;;19.33;;
47335;SDS011;33068;51.990;5.926;2024-01-06T11:57:49;30.13;;;19.08;;
47335;SDS011;33068;51.990;5.926;2024-01-06T12:00:16;38.78;;;20.20;;
47335;SDS011;33068;51.990;5.926;2024-01-06T12:02:44;29.83;;;18.08;;
47335;SDS011;33068;51.990;5.926;2024-01-06T12:05:12;30.17;;;18.33;;
47335;SDS011;33068;51.990;5.926;2024-01-06T12:07:42;29.30;;;18.08;;
47335;SDS011;33068;51.990;5.926;2024-01-06T12:10:10;29.50;;;17.92;;
47335;SDS011;33068;51.990;5.926;2024-01-06T12:12:39;27.40;;;17.65;;
47335;SDS011;33068;51.990;5.926;2024-01-06T12:15:06;31.75;;;17.90;;
47335;SDS011;33068;51.990;5.926;2024-01-06T12:17:35;30.83;;;18.77;;
47335;SDS011;33068;51.990;5.926;2024-01-06T12:20:02;30.15;;;18.63;;
47335;SDS011;33068;51.990;5.926;2024-01-06T12:22:30;32.33;;;20.02;;
47335;SDS011;33068;51.990;5.926;2024-01-06T12:24:59;33.65;;;19.40;;
47335;SDS011;33068;51.990;5.926;2024-01-06T12:27:26;33.72;;;19.55;;
47335;SDS011;33068;51.990;5.926;2024-01-06T12:29:56;32.63;;;19.80;;
47335;SDS011;33068;51.990;5.926;2024-01-06T12:32:23;32.28;;;19.27;;
47335;SDS011;33068;51.990;5.926;2024-01-06T12:34:50;30.08;;;18.85;;
47335;SDS011;33068;51.990;5.926;2024-01-06T12:37:17;32.60;;;19.15;;
47335;SDS011;33068;51.990;5.926;2024-01-06T12:39:44;36.13;;;19.95;;
47335;SDS011;33068;51.990;5.926;2024-01-06T12:42:16;32.10;;;19.00;;
47335;SDS011;33068;51.990;5.926;2024-01-06T12:44:43;31.80;;;19.35;;
47335;SDS011;33068;51.990;5.926;2024-01-06T12:47:10;31.90;;;20.10;;
47335;SDS011;33068;51.990;5.926;2024-01-06T12:49:37;34.53;;;19.90;;
47335;SDS011;33068;51.990;5.926;2024-01-06T12:52:04;32.75;;;19.63;;
47335;SDS011;33068;51.990;5.926;2024-01-06T12:54:31;37.47;;;20.73;;
47335;SDS011;33068;51.990;5.926;2024-01-06T12:56:58;37.17;;;20.83;;
47335;SDS011;33068;51.990;5.926;2024-01-06T12:59:27;31.58;;;21.20;;
47335;SDS011;33068;51.990;5.926;2024-01-06T13:01:55;37.78;;;20.60;;
47335;SDS011;33068;51.990;5.926;2024-01-06T13:04:22;37.13;;;20.65;;
47335;SDS011;33068;51.990;5.926;2024-01-06T13:06:49;36.05;;;20.70;;
47335;SDS011;33068;51.990;5.926;2024-01-06T13:09:17;34.15;;;21.30;;
47335;SDS011;33068;51.990;5.926;2024-01-06T13:11:44;37.33;;;21.65;;
47335;SDS011;33068;51.990;5.926;2024-01-06T13:14:12;42.28;;;22.77;;
47335;SDS011;33068;51.990;5.926;2024-01-06T13:16:41;44.60;;;23.77;;
47335;SDS011;33068;51.990;5.926;2024-01-06T13:19:08;42.63;;;23.48;;
47335;SDS011;33068;51.990;5.926;2024-01-06T13:21:35;42.45;;;22.42;;
47335;SDS011;33068;51.990;5.926;2024-01-06T13:24:05;42.22;;;23.52;;
47335;SDS011;33068;51.990;5.926;2024-01-06T13:26:32;42.13;;;23.10;;
47335;SDS011;33068;51.990;5.926;2024-01-06T13:28:59;38.40;;;22.05;;
47335;SDS011;33068;51.990;5.926;2024-01-06T13:31:27;40.25;;;23.10;;
47335;SDS011;33068;51.990;5.926;2024-01-06T13:33:57;42.22;;;23.00;;
47335;SDS011;33068;51.990;5.926;2024-01-06T13:36:24;34.78;;;21.70;;
47335;SDS011;33068;51.990;5.926;2024-01-06T13:38:51;40.25;;;22.98;;
47335;SDS011;33068;51.990;5.926;2024-01-06T13:41:18;37.88;;;22.23;;
47335;SDS011;33068;51.990;5.926;2024-01-06T13:43:45;43.63;;;24.35;;
47335;SDS011;33068;51.990;5.926;2024-01-06T13:46:13;39.00;;;23.08;;
47335;SDS011;33068;51.990;5.926;2024-01-06T13:48:40;40.92;;;24.13;;
47335;SDS011;33068;51.990;5.926;2024-01-06T13:51:08;41.60;;;24.13;;
47335;SDS011;33068;51.990;5.926;2024-01-06T13:53:35;48.38;;;27.02;;
47335;SDS011;33068;51.990;5.926;2024-01-06T13:56:04;41.55;;;24.48;;
47335;SDS011;33068;51.990;5.926;2024-01-06T13:58:31;46.22;;;25.70;;
47335;SDS011;33068;51.990;5.926;2024-01-06T14:01:00;43.22;;;25.83;;
47335;SDS011;33068;51.990;5.926;2024-01-06T14:03:28;44.22;;;25.92;;
47335;SDS011;33068;51.990;5.926;2024-01-06T14:05:55;42.00;;;24.83;;
47335;SDS011;33068;51.990;5.926;2024-01-06T14:08:23;43.50;;;25.08;;
47335;SDS011;33068;51.990;5.926;2024-01-06T14:10:50;48.97;;;25.50;;
47335;SDS011;33068;51.990;5.926;2024-01-06T14:13:17;46.58;;;26.15;;
47335;SDS011;33068;51.990;5.926;2024-01-06T14:15:44;49.38;;;26.73;;
47335;SDS011;33068;51.990;5.926;2024-01-06T14:18:12;44.60;;;25.60;;
47335;SDS011;33068;51.990;5.926;2024-01-06T14:20:41;46.67;;;25.92;;
47335;SDS011;33068;51.990;5.926;2024-01-06T14:23:08;46.25;;;25.77;;
47335;SDS011;33068;51.990;5.926;2024-01-06T14:25:37;39.45;;;23.38;;
47335;SDS011;33068;51.990;5.926;2024-01-06T14:28:04;45.53;;;24.00;;
47335;SDS011;33068;51.990;5.926;2024-01-06T14:30:32;44.63;;;24.65;;
47335;SDS011;33068;51.990;5.926;2024-01-06T14:32:59;42.30;;;23.20;;
47335;SDS011;33068;51.990;5.926;2024-01-06T14:35:26;44.92;;;23.70;;
47335;SDS011;33068;51.990;5.926;2024-01-06T14:37:53;38.17;;;23.05;;
47335;SDS011;33068;51.990;5.926;2024-01-06T14:40:19;39.35;;;22.85;;
47335;SDS011;33068;51.990;5.926;2024-01-06T14:42:48;42.42;;;25.05;;
47335;SDS011;33068;51.990;5.926;2024-01-06T14:45:15;39.50;;;21.38;;
47335;SDS011;33068;51.990;5.926;2024-01-06T14:47:43;38.78;;;22.30;;
47335;SDS011;33068;51.990;5.926;2024-01-06T14:50:10;35.50;;;20.95;;
47335;SDS011;33068;51.990;5.926;2024-01-06T14:52:37;37.42;;;21.80;;
47335;SDS011;33068;51.990;5.926;2024-01-06T14:55:05;38.42;;;22.35;;
47335;SDS011;33068;51.990;5.926;2024-01-06T14:57:32;41.20;;;22.27;;
47335;SDS011;33068;51.990;5.926;2024-01-06T15:00:01;36.80;;;21.52;;
47335;SDS011;33068;51.990;5.926;2024-01-06T15:02:28;35.20;;;20.45;;
47335;SDS011;33068;51.990;5.926;2024-01-06T15:04:55;37.25;;;20.92;;
47335;SDS011;33068;51.990;5.926;2024-01-06T15:07:22;38.33;;;22.27;;
47335;SDS011;33068;51.990;5.926;2024-01-06T15:09:50;37.95;;;21.80;;
47335;SDS011;33068;51.990;5.926;2024-01-06T15:12:17;40.78;;;21.83;;
47335;SDS011;33068;51.990;5.926;2024-01-06T15:14:44;39.20;;;23.23;;
47335;SDS011;33068;51.990;5.926;2024-01-06T15:17:12;34.55;;;21.75;;
47335;SDS011;33068;51.990;5.926;2024-01-06T15:19:39;39.85;;;22.40;;
47335;SDS011;33068;51.990;5.926;2024-01-06T15:22:06;39.42;;;20.85;;
47335;SDS011;33068;51.990;5.926;2024-01-06T15:24:33;42.50;;;22.77;;
47335;SDS011;33068;51.990;5.926;2024-01-06T15:27:00;35.40;;;20.98;;
47335;SDS011;33068;51.990;5.926;2024-01-06T15:29:27;38.30;;;21.35;;
47335;SDS011;33068;51.990;5.926;2024-01-06T15:31:54;35.38;;;19.90;;
47335;SDS011;33068;51.990;5.926;2024-01-06T15:34:23;34.47;;;21.17;;
47335;SDS011;33068;51.990;5.926;2024-01-06T15:36:50;34.28;;;20.35;;
47335;SDS011;33068;51.990;5.926;2024-01-06T15:39:17;38.83;;;21.13;;
47335;SDS011;33068;51.990;5.926;2024-01-06T15:41:44;34.58;;;19.70;;
47335;SDS011;33068;51.990;5.926;2024-01-06T15:44:12;33.95;;;19.75;;
47335;SDS011;33068;51.990;5.926;2024-01-06T15:46:39;34.03;;;19.05;;
47335;SDS011;33068;51.990;5.926;2024-01-06T15:49:06;35.35;;;20.13;;
47335;SDS011;33068;51.990;5.926;2024-01-06T15:51:35;33.95;;;19.85;;
47335;SDS011;33068;51.990;5.926;2024-01-06T15:54:02;33.97;;;17.67;;
47335;SDS011;33068;51.990;5.926;2024-01-06T15:56:29;35.58;;;18.95;;
47335;SDS011;33068;51.990;5.926;2024-01-06T15:58:57;31.27;;;18.35;;
47335;SDS011;33068;51.990;5.926;2024-01-06T16:01:25;36.55;;;19.95;;
47335;SDS011;33068;51.990;5.926;2024-01-06T16:03:52;32.63;;;19.95;;
47335;SDS011;33068;51.990;5.926;2024-01-06T16:06:19;32.45;;;18.90;;
47335;SDS011;33068;51.990;5.926;2024-01-06T16:08:47;31.80;;;19.20;;
47335;SDS011;33068;51.990;5.926;2024-01-06T16:11:14;34.38;;;20.33;;
47335;SDS011;33068;51.990;5.926;2024-01-06T16:13:41;33.30;;;19.77;;
47335;SDS011;33068;51.990;5.926;2024-01-06T16:16:08;32.40;;;20.08;;
47335;SDS011;33068;51.990;5.926;2024-01-06T16:18:35;34.17;;;20.42;;
47335;SDS011;33068;51.990;5.926;2024-01-06T16:21:02;33.42;;;20.40;;
47335;SDS011;33068;51.990;5.926;2024-01-06T16:23:29;33.22;;;20.42;;
47335;SDS011;33068;51.990;5.926;2024-01-06T16:25:58;34.88;;;20.63;;
47335;SDS011;33068;51.990;5.926;2024-01-06T16:28:26;34.60;;;20.75;;
47335;SDS011;33068;51.990;5.926;2024-01-06T16:30:53;29.98;;;19.48;;
47335;SDS011;33068;51.990;5.926;2024-01-06T16:33:20;35.55;;;20.65;;
47335;SDS011;33068;51.990;5.926;2024-01-06T16:35:47;38.47;;;23.35;;
47335;SDS011;33068;51.990;5.926;2024-01-06T16:38:14;35.47;;;21.77;;
47335;SDS011;33068;51.990;5.926;2024-01-06T16:40:41;32.42;;;20.52;;
47335;SDS011;33068;51.990;5.926;2024-01-06T16:43:10;36.85;;;21.00;;
47335;SDS011;33068;51.990;5.926;2024-01-06T16:45:37;37.72;;;22.15;;
47335;SDS011;33068;51.990;5.926;2024-01-06T16:48:04;33.33;;;20.73;;
47335;SDS011;33068;51.990;5.926;2024-01-06T16:50:32;33.92;;;21.63;;